createdAt,value
2023-04-26T00:01:03.989Z,9.16
2023-04-26T00:03:08.315Z,9.13
2023-04-26T00:05:11.609Z,9.11
2023-04-26T00:07:15.782Z,9.10
2023-04-26T00:09:19.516Z,9.07
2023-04-26T00:11:23.064Z,9.04
2023-04-26T00:13:25.993Z,9.02
2023-04-26T00:15:28.838Z,8.97
2023-04-26T00:17:31.903Z,8.93
2023-04-26T00:19:36.936Z,8.88
2023-04-26T00:21:39.816Z,8.85
2023-04-26T00:23:43.121Z,8.80
2023-04-26T00:25:46.253Z,8.74
2023-04-26T00:27:49.914Z,8.70
2023-04-26T00:29:52.674Z,8.70
2023-04-26T00:32:01.400Z,8.68
2023-04-26T00:34:04.190Z,8.68
2023-04-26T00:36:08.849Z,8.67
2023-04-26T00:38:11.726Z,8.68
2023-04-26T00:40:16.131Z,8.66
2023-04-26T00:42:19.595Z,8.64
2023-04-26T00:44:22.490Z,8.64
2023-04-26T00:46:26.476Z,8.61
2023-04-26T00:48:29.931Z,8.55
2023-04-26T00:50:33.573Z,8.52
2023-04-26T00:52:39.742Z,8.35
2023-04-26T00:54:43.019Z,8.34
2023-04-26T00:56:45.983Z,8.34
2023-04-26T00:58:48.931Z,8.32
2023-04-26T01:00:51.818Z,8.31
2023-04-26T01:02:54.779Z,8.31
2023-04-26T01:04:57.658Z,8.31
2023-04-26T01:07:01.418Z,8.24
2023-04-26T01:09:09.931Z,8.23
2023-04-26T01:11:12.979Z,8.16
2023-04-26T01:13:16.460Z,8.14
2023-04-26T01:15:19.326Z,8.11
2023-04-26T01:17:22.165Z,8.04
2023-04-26T01:19:25.661Z,8.03
2023-04-26T01:21:28.551Z,8.01
2023-04-26T01:23:52.258Z,7.96
2023-04-26T01:25:56.278Z,7.83
2023-04-26T01:27:58.996Z,7.83
2023-04-26T01:30:01.747Z,7.81
2023-04-26T01:32:07.302Z,7.78
2023-04-26T01:34:10.338Z,7.74
2023-04-26T01:36:13.557Z,7.72
2023-04-26T01:38:17.808Z,7.71
2023-04-26T01:40:22.204Z,7.69
2023-04-26T01:42:25.151Z,7.69
2023-04-26T01:44:28.020Z,7.63
2023-04-26T01:46:30.851Z,7.58
2023-04-26T01:48:34.287Z,7.58
2023-04-26T01:50:37.106Z,7.53
2023-04-26T01:52:39.885Z,7.52
2023-04-26T01:54:42.860Z,7.52
2023-04-26T01:56:47.171Z,7.47
2023-04-26T01:58:50.300Z,7.47
2023-04-26T02:00:53.246Z,7.53
2023-04-26T02:02:56.484Z,7.58
2023-04-26T02:04:59.340Z,7.65
2023-04-26T02:07:03.032Z,7.64
2023-04-26T02:09:06.005Z,7.64
2023-04-26T02:11:08.856Z,7.63
2023-04-26T02:13:13.762Z,7.65
2023-04-26T02:15:16.652Z,7.56
2023-04-26T02:17:21.282Z,7.55
2023-04-26T02:19:24.260Z,7.55
2023-04-26T02:21:28.216Z,7.62
2023-04-26T02:23:31.311Z,7.62
2023-04-26T02:25:34.187Z,7.57
2023-04-26T02:27:37.063Z,7.53
2023-04-26T02:29:44.719Z,7.47
2023-04-26T02:31:49.286Z,7.46
2023-04-26T02:33:52.071Z,7.40
2023-04-26T02:35:54.909Z,7.36
2023-04-26T02:37:57.696Z,7.33
2023-04-26T02:40:01.381Z,7.31
2023-04-26T02:42:05.026Z,7.28
2023-04-26T02:44:08.244Z,7.27
2023-04-26T02:46:12.479Z,7.24
2023-04-26T02:48:15.486Z,7.20
2023-04-26T02:50:18.313Z,7.19
2023-04-26T02:52:21.349Z,7.21
2023-04-26T02:54:24.146Z,7.19
2023-04-26T02:56:28.006Z,7.12
2023-04-26T02:58:31.249Z,7.09
2023-04-26T03:00:35.021Z,7.25
2023-04-26T03:02:41.060Z,7.15
2023-04-26T03:04:44.084Z,7.13
2023-04-26T03:06:46.810Z,7.08
2023-04-26T03:08:49.828Z,7.01
2023-04-26T03:10:52.951Z,6.95
2023-04-26T03:12:55.690Z,6.91
2023-04-26T03:14:58.672Z,6.88
2023-04-26T03:17:02.973Z,6.81
2023-04-26T03:19:09.298Z,6.78
2023-04-26T03:21:13.270Z,6.75
2023-04-26T03:23:16.220Z,6.75
2023-04-26T03:25:19.562Z,6.75
2023-04-26T03:27:22.392Z,6.74
2023-04-26T03:29:25.255Z,6.74
2023-04-26T03:31:28.096Z,6.74
2023-04-26T03:33:31.650Z,6.73
2023-04-26T03:35:35.805Z,6.69
2023-04-26T03:37:39.937Z,6.61
2023-04-26T03:39:46.600Z,6.56
2023-04-26T03:41:50.152Z,6.54
2023-04-26T03:43:53.042Z,6.49
2023-04-26T03:45:56.318Z,6.47
2023-04-26T03:47:59.187Z,6.40
2023-04-26T03:50:02.390Z,6.37
2023-04-26T03:52:07.370Z,6.31
2023-04-26T03:54:11.132Z,6.24
2023-04-26T03:56:14.043Z,6.19
2023-04-26T03:58:16.883Z,6.16
2023-04-26T04:00:19.637Z,6.08
2023-04-26T04:02:24.148Z,5.95
2023-04-26T04:04:27.484Z,5.89
2023-04-26T04:06:30.855Z,5.88
2023-04-26T04:08:35.383Z,5.88
2023-04-26T04:10:38.392Z,5.86
2023-04-26T04:12:41.283Z,5.84
2023-04-26T04:14:44.362Z,5.86
2023-04-26T04:16:47.495Z,5.85
2023-04-26T04:18:50.955Z,5.78
2023-04-26T04:20:53.933Z,5.83
2023-04-26T04:22:57.708Z,5.98
2023-04-26T04:25:04.615Z,6.00
2023-04-26T04:27:07.517Z,5.98
2023-04-26T04:29:10.521Z,5.94
2023-04-26T04:31:14.263Z,5.92
2023-04-26T04:33:17.809Z,5.92
2023-04-26T04:35:20.924Z,5.93
2023-04-26T04:37:25.509Z,5.94
2023-04-26T04:39:28.532Z,5.95
2023-04-26T04:41:34.576Z,5.94
2023-04-26T04:43:37.418Z,5.94
2023-04-26T04:45:40.305Z,5.98
2023-04-26T04:47:44.000Z,5.99
2023-04-26T04:49:47.208Z,5.99
2023-04-26T04:51:50.022Z,6.00
2023-04-26T04:53:53.261Z,5.99
2023-04-26T04:55:56.903Z,5.95
2023-04-26T04:58:01.614Z,5.94
2023-04-26T05:00:10.258Z,5.92
2023-04-26T05:02:18.967Z,5.97
2023-04-26T05:04:22.339Z,6.00
2023-04-26T05:06:25.442Z,6.03
2023-04-26T05:08:28.433Z,6.07
2023-04-26T05:10:34.624Z,6.12
2023-04-26T05:12:38.059Z,6.15
2023-04-26T05:14:42.289Z,6.17
2023-04-26T05:16:45.224Z,6.20
2023-04-26T05:18:48.868Z,6.25
2023-04-26T05:20:51.752Z,6.29
2023-04-26T05:22:54.736Z,6.32
2023-04-26T05:24:57.682Z,6.33
2023-04-26T05:27:01.026Z,6.40
2023-04-26T05:29:09.662Z,6.45
2023-04-26T05:31:22.544Z,6.53
2023-04-26T05:33:45.792Z,6.54
2023-04-26T05:35:54.154Z,6.59
2023-04-26T05:37:58.070Z,6.60
2023-04-26T05:40:01.297Z,6.67
2023-04-26T05:42:04.348Z,6.71
2023-04-26T05:44:08.033Z,6.70
2023-04-26T05:46:10.915Z,6.75
2023-04-26T05:48:15.279Z,6.87
2023-04-26T05:50:18.399Z,6.91
2023-04-26T05:52:21.388Z,6.94
2023-04-26T05:54:24.890Z,6.97
2023-04-26T05:56:28.574Z,7.06
2023-04-26T05:58:33.678Z,7.12
2023-04-26T06:00:38.490Z,7.20
2023-04-26T06:02:42.917Z,7.21
2023-04-26T06:04:53.324Z,7.34
2023-04-26T06:06:56.258Z,7.52
2023-04-26T06:08:59.088Z,7.50
2023-04-26T06:11:01.912Z,7.55
2023-04-26T06:13:04.793Z,7.63
2023-04-26T06:15:12.337Z,7.71
2023-04-26T06:17:15.969Z,7.80
2023-04-26T06:19:19.356Z,7.78
2023-04-26T06:21:25.333Z,7.97
2023-04-26T06:23:28.269Z,7.85
2023-04-26T06:25:31.349Z,7.80
2023-04-26T06:27:34.256Z,7.93
2023-04-26T06:29:37.181Z,8.08
2023-04-26T06:31:40.086Z,8.13
2023-04-26T06:33:42.947Z,8.31
2023-04-26T06:35:46.393Z,8.33
2023-04-26T06:37:51.358Z,8.30
2023-04-26T06:39:54.227Z,8.26
2023-04-26T06:41:57.240Z,8.19
2023-04-26T06:44:22.783Z,8.10
2023-04-26T06:46:25.616Z,8.12
2023-04-26T06:48:29.742Z,8.11
2023-04-26T06:50:32.600Z,8.21
2023-04-26T06:52:35.469Z,8.31
2023-04-26T06:54:45.957Z,8.43
2023-04-26T06:56:52.961Z,8.55
2023-04-26T06:59:03.520Z,8.69
2023-04-26T07:01:08.519Z,9.05
2023-04-26T07:03:11.447Z,8.99
2023-04-26T07:05:15.226Z,8.94
2023-04-26T07:07:18.210Z,8.85
2023-04-26T07:09:21.054Z,8.81
2023-04-26T07:11:26.034Z,8.98
2023-04-26T07:13:29.311Z,9.08
2023-04-26T07:15:33.097Z,9.07
2023-04-26T07:17:36.198Z,9.43
2023-04-26T07:19:39.005Z,9.41
2023-04-26T07:21:41.872Z,9.46
2023-04-26T07:23:44.866Z,9.60
2023-04-26T07:25:47.992Z,9.79
2023-04-26T07:27:52.374Z,9.79
2023-04-26T07:29:56.139Z,9.71
2023-04-26T07:31:59.279Z,9.68
2023-04-26T07:34:02.027Z,9.52
2023-04-26T07:36:05.305Z,9.50
2023-04-26T07:38:08.965Z,9.64
2023-04-26T07:40:13.522Z,9.85
2023-04-26T07:42:16.575Z,10.02
2023-04-26T07:44:20.743Z,10.20
2023-04-26T07:46:23.700Z,10.21
2023-04-26T07:48:26.515Z,10.17
2023-04-26T07:50:29.452Z,10.22
2023-04-26T07:52:32.331Z,10.33
2023-04-26T07:54:35.195Z,10.41
2023-04-26T07:56:37.944Z,10.31
2023-04-26T07:58:40.826Z,10.30
2023-04-26T08:00:45.051Z,10.42
2023-04-26T08:02:48.011Z,10.33
2023-04-26T08:04:52.565Z,10.46
2023-04-26T08:06:56.762Z,10.47
2023-04-26T08:08:59.537Z,10.67
2023-04-26T08:11:02.390Z,10.80
2023-04-26T08:13:05.372Z,10.97
2023-04-26T08:15:09.129Z,11.11
2023-04-26T08:17:13.360Z,11.13
2023-04-26T08:19:17.472Z,11.14
2023-04-26T08:21:20.274Z,11.15
2023-04-26T08:23:23.554Z,11.40
2023-04-26T08:25:27.050Z,11.35
2023-04-26T08:27:29.840Z,11.19
2023-04-26T08:29:32.664Z,11.16
2023-04-26T08:31:35.993Z,10.91
2023-04-26T08:33:40.348Z,11.02
2023-04-26T08:35:43.158Z,10.94
2023-04-26T08:37:46.114Z,10.79
2023-04-26T08:39:48.906Z,10.68
2023-04-26T08:41:55.132Z,10.76
2023-04-26T08:43:59.124Z,10.90
2023-04-26T08:46:02.863Z,11.11
2023-04-26T08:48:13.365Z,11.23
2023-04-26T08:50:20.872Z,11.04
2023-04-26T08:52:24.545Z,11.20
2023-04-26T08:54:28.846Z,11.39
2023-04-26T08:56:32.195Z,11.49
2023-04-26T08:58:35.963Z,11.85
2023-04-26T09:00:39.214Z,11.89
2023-04-26T09:02:43.123Z,12.09
2023-04-26T09:04:46.964Z,12.11
2023-04-26T09:06:54.430Z,12.36
2023-04-26T09:08:59.346Z,12.43
2023-04-26T09:11:03.952Z,12.35
2023-04-26T09:13:06.820Z,12.35
2023-04-26T09:15:10.863Z,12.23
2023-04-26T09:17:26.954Z,12.02
2023-04-26T09:19:37.788Z,12.05
2023-04-26T09:21:45.330Z,12.27
2023-04-26T09:24:04.393Z,12.51
2023-04-26T09:26:17.066Z,12.42
2023-04-26T09:28:22.941Z,12.58
2023-04-26T09:30:26.014Z,12.51
2023-04-26T09:32:44.159Z,12.48
2023-04-26T09:34:47.956Z,12.53
2023-04-26T09:36:51.991Z,12.47
2023-04-26T09:38:54.811Z,12.49
2023-04-26T09:41:00.974Z,12.22
2023-04-26T09:43:05.368Z,12.21
2023-04-26T09:45:09.033Z,12.47
2023-04-26T09:47:13.173Z,12.42
2023-04-26T09:49:16.120Z,12.48
2023-04-26T09:51:18.929Z,12.58
2023-04-26T09:53:29.671Z,12.53
2023-04-26T09:55:35.357Z,12.57
2023-04-26T09:57:45.462Z,12.57
2023-04-26T09:59:49.829Z,12.41
2023-04-26T10:01:52.700Z,12.25
2023-04-26T10:03:56.871Z,12.27
2023-04-26T10:05:59.902Z,11.97
2023-04-26T10:08:04.064Z,11.96
2023-04-26T10:10:08.797Z,11.98
2023-04-26T10:12:12.324Z,12.15
2023-04-26T10:14:17.014Z,12.44
2023-04-26T10:16:21.812Z,12.29
2023-04-26T10:18:24.592Z,12.42
2023-04-26T10:20:30.141Z,12.32
2023-04-26T10:22:38.234Z,12.35
2023-04-26T10:24:41.432Z,12.26
2023-04-26T10:26:53.013Z,12.37
2023-04-26T10:29:01.968Z,12.22
2023-04-26T10:31:07.629Z,12.39
2023-04-26T10:33:14.751Z,12.55
2023-04-26T10:35:19.087Z,12.61
2023-04-26T10:37:21.916Z,12.35
2023-04-26T10:39:25.870Z,12.38
2023-04-26T10:41:33.195Z,12.53
2023-04-26T10:43:36.275Z,12.63
2023-04-26T10:45:39.979Z,12.71
2023-04-26T10:47:44.256Z,12.81
2023-04-26T10:49:48.271Z,12.83
2023-04-26T10:52:11.268Z,12.87
2023-04-26T10:54:14.262Z,12.98
2023-04-26T10:56:53.846Z,13.04
2023-04-26T10:59:30.674Z,13.23
2023-04-26T11:01:32.118Z,13.68
2023-04-26T11:03:37.161Z,13.69
2023-04-26T11:05:56.326Z,13.73
2023-04-26T11:08:19.117Z,13.73
2023-04-26T11:10:24.072Z,13.49
2023-04-26T11:12:26.898Z,13.80
2023-04-26T11:14:31.256Z,13.97
2023-04-26T11:16:35.212Z,13.98
2023-04-26T11:18:41.892Z,14.02
2023-04-26T11:20:46.132Z,14.03
2023-04-26T11:22:49.028Z,14.16
2023-04-26T11:24:51.900Z,14.14
2023-04-26T11:26:55.022Z,13.99
2023-04-26T11:28:57.945Z,13.99
2023-04-26T11:31:01.934Z,14.10
2023-04-26T11:33:05.172Z,14.30
2023-04-26T11:35:10.495Z,14.50
2023-04-26T11:37:13.405Z,14.65
2023-04-26T11:39:16.344Z,15.22
2023-04-26T11:41:19.269Z,15.10
2023-04-26T11:43:22.213Z,14.30
2023-04-26T11:45:25.006Z,14.16
2023-04-26T11:47:30.726Z,14.24
2023-04-26T11:49:34.464Z,14.28
2023-04-26T11:51:38.729Z,13.83
2023-04-26T11:53:42.915Z,13.83
2023-04-26T11:55:46.136Z,13.79
2023-04-26T11:57:48.933Z,13.93
2023-04-26T11:59:52.004Z,14.23
2023-04-26T12:01:54.786Z,13.89
2023-04-26T12:03:59.408Z,13.42
2023-04-26T12:06:02.529Z,13.27
2023-04-26T12:08:06.855Z,13.51
2023-04-26T12:10:16.498Z,13.87
2023-04-26T12:12:19.388Z,13.98
2023-04-26T12:14:23.025Z,14.15
2023-04-26T12:16:27.131Z,14.09
2023-04-26T12:18:33.693Z,14.17
2023-04-26T12:20:39.207Z,14.12
2023-04-26T12:22:42.150Z,14.21
2023-04-26T12:24:48.071Z,14.41
2023-04-26T12:26:50.975Z,14.53
2023-04-26T12:28:53.763Z,14.78
2023-04-26T12:30:56.979Z,14.91
2023-04-26T12:33:09.225Z,14.93
2023-04-26T12:35:18.993Z,14.78
2023-04-26T12:37:21.808Z,14.75
2023-04-26T12:39:24.732Z,14.76
2023-04-26T12:41:28.836Z,14.86
2023-04-26T12:43:32.842Z,15.27
2023-04-26T12:45:36.573Z,14.96
2023-04-26T12:47:39.861Z,15.06
2023-04-26T12:49:42.626Z,15.19
2023-04-26T12:51:46.088Z,14.99
2023-04-26T12:53:48.851Z,15.30
2023-04-26T12:55:51.686Z,15.38
2023-04-26T12:57:55.870Z,15.35
2023-04-26T12:59:58.765Z,15.26
2023-04-26T13:02:02.087Z,15.13
2023-04-26T13:04:05.975Z,15.14
2023-04-26T13:06:09.437Z,14.97
2023-04-26T13:08:12.480Z,14.75
2023-04-26T13:10:15.522Z,14.64
2023-04-26T13:12:18.341Z,14.64
2023-04-26T13:14:23.284Z,14.64
2023-04-26T13:16:26.441Z,14.99
2023-04-26T13:18:29.368Z,15.23
2023-04-26T13:20:32.220Z,15.15
2023-04-26T13:22:35.127Z,15.41
2023-04-26T13:24:38.252Z,15.26
2023-04-26T13:26:41.121Z,15.43
2023-04-26T13:28:43.912Z,15.34
2023-04-26T13:30:48.323Z,15.15
2023-04-26T13:32:51.526Z,15.29
2023-04-26T13:34:55.034Z,15.35
2023-04-26T13:36:58.836Z,15.29
2023-04-26T13:39:01.738Z,15.23
2023-04-26T13:41:04.586Z,15.41
2023-04-26T13:43:07.358Z,15.38
2023-04-26T13:45:11.106Z,15.27
2023-04-26T13:47:15.261Z,15.35
2023-04-26T13:49:18.109Z,15.20
2023-04-26T13:51:21.047Z,15.04
2023-04-26T13:53:23.949Z,15.23
2023-04-26T13:55:26.773Z,15.25
2023-04-26T13:57:29.554Z,15.24
2023-04-26T13:59:32.563Z,15.20
2023-04-26T14:01:36.890Z,15.59
2023-04-26T14:03:41.884Z,15.40
2023-04-26T14:05:44.857Z,15.03
2023-04-26T14:07:47.645Z,15.10
2023-04-26T14:09:52.015Z,14.93
2023-04-26T14:12:07.131Z,14.84
2023-04-26T14:14:11.167Z,14.98
2023-04-26T14:16:13.965Z,14.78
2023-04-26T14:18:17.533Z,14.81
2023-04-26T14:20:22.142Z,14.86
2023-04-26T14:22:25.887Z,14.91
2023-04-26T14:24:28.685Z,15.06
2023-04-26T14:26:31.462Z,14.82
2023-04-26T14:28:34.290Z,14.81
2023-04-26T14:30:37.130Z,14.68
2023-04-26T14:32:39.924Z,14.60
2023-04-26T14:34:42.872Z,14.52
2023-04-26T14:36:47.066Z,14.54
2023-04-26T14:38:49.931Z,14.49
2023-04-26T14:40:52.825Z,14.50
2023-04-26T14:42:55.670Z,14.64
2023-04-26T14:44:59.555Z,14.56
2023-04-26T14:47:02.309Z,14.53
2023-04-26T14:49:05.101Z,14.65
2023-04-26T14:51:07.967Z,14.82
2023-04-26T14:53:12.287Z,14.64
2023-04-26T14:55:18.288Z,14.67
2023-04-26T14:57:21.222Z,14.61
2023-04-26T14:59:24.098Z,14.52
2023-04-26T15:01:27.152Z,14.48
2023-04-26T15:03:30.116Z,14.54
2023-04-26T15:05:33.260Z,14.67
2023-04-26T15:07:36.421Z,14.75
2023-04-26T15:09:40.633Z,14.91
2023-04-26T15:11:43.456Z,15.01
2023-04-26T15:13:46.231Z,15.18
2023-04-26T15:15:48.966Z,15.05
2023-04-26T15:17:51.940Z,15.12
2023-04-26T15:19:54.757Z,14.91
2023-04-26T15:21:57.487Z,14.97
2023-04-26T15:24:00.336Z,14.94
2023-04-26T15:26:05.004Z,14.94
2023-04-26T15:28:07.672Z,14.83
2023-04-26T15:30:10.920Z,14.84
2023-04-26T15:32:13.719Z,14.87
2023-04-26T15:34:16.593Z,14.80
2023-04-26T15:36:20.477Z,14.86
2023-04-26T15:38:23.283Z,15.13
2023-04-26T15:40:27.510Z,14.99
2023-04-26T15:42:31.698Z,14.86
2023-04-26T15:44:35.166Z,14.94
2023-04-26T15:46:38.353Z,14.98
2023-04-26T15:48:41.365Z,15.21
2023-04-26T15:50:44.141Z,15.14
2023-04-26T15:52:46.917Z,15.35
2023-04-26T15:54:49.735Z,15.56
2023-04-26T15:56:52.941Z,15.79
2023-04-26T15:58:57.555Z,16.03
2023-04-26T16:01:00.228Z,16.16
2023-04-26T16:03:03.660Z,16.30
2023-04-26T16:05:08.197Z,16.27
2023-04-26T16:07:11.735Z,16.28
2023-04-26T16:09:25.302Z,15.94
2023-04-26T16:11:28.623Z,15.99
2023-04-26T16:13:33.461Z,16.10
2023-04-26T16:15:37.544Z,16.05
2023-04-26T16:17:40.455Z,16.26
2023-04-26T16:19:43.253Z,16.23
2023-04-26T16:21:47.018Z,16.08
2023-04-26T16:23:51.418Z,15.98
2023-04-26T16:25:57.418Z,15.81
2023-04-26T16:28:00.297Z,15.83
2023-04-26T16:30:03.867Z,15.52
2023-04-26T16:32:08.075Z,15.45
2023-04-26T16:34:11.326Z,15.28
2023-04-26T16:36:14.113Z,15.44
2023-04-26T16:38:17.250Z,15.66
2023-04-26T16:40:20.048Z,15.66
2023-04-26T16:42:22.903Z,15.65
2023-04-26T16:44:25.915Z,15.47
2023-04-26T16:46:28.826Z,15.32
2023-04-26T16:48:33.983Z,15.18
2023-04-26T16:50:36.909Z,15.31
2023-04-26T16:52:40.013Z,15.25
2023-04-26T16:54:42.833Z,15.01
2023-04-26T16:56:45.792Z,15.03
2023-04-26T16:58:48.557Z,15.14
2023-04-26T17:00:51.863Z,15.06
2023-04-26T17:02:54.888Z,14.91
2023-04-26T17:04:59.230Z,14.71
2023-04-26T17:07:02.092Z,14.65
2023-04-26T17:09:08.027Z,14.66
2023-04-26T17:11:14.059Z,14.58
2023-04-26T17:13:16.945Z,14.49
2023-04-26T17:15:19.916Z,14.37
2023-04-26T17:17:22.677Z,14.31
2023-04-26T17:19:25.851Z,14.29
2023-04-26T17:21:30.042Z,14.31
2023-04-26T17:23:33.766Z,14.35
2023-04-26T17:25:36.756Z,14.41
2023-04-26T17:27:39.540Z,14.51
2023-04-26T17:29:42.434Z,14.43
2023-04-26T17:31:45.446Z,14.34
2023-04-26T17:33:48.814Z,14.42
2023-04-26T17:35:51.661Z,14.37
2023-04-26T17:37:55.761Z,14.33
2023-04-26T17:39:58.614Z,14.30
2023-04-26T17:42:02.990Z,14.44
2023-04-26T17:44:05.869Z,14.43
2023-04-26T17:46:08.861Z,14.28
2023-04-26T17:48:13.179Z,14.25
2023-04-26T17:50:17.704Z,14.05
2023-04-26T17:52:20.548Z,14.18
2023-04-26T17:54:24.777Z,14.15
2023-04-26T17:56:27.577Z,13.87
2023-04-26T17:58:30.343Z,13.82
2023-04-26T18:00:33.169Z,13.81
2023-04-26T18:02:36.490Z,13.82
2023-04-26T18:04:39.718Z,13.69
2023-04-26T18:06:43.889Z,13.66
2023-04-26T18:08:47.069Z,13.64
2023-04-26T18:10:53.769Z,13.84
2023-04-26T18:12:56.613Z,13.70
2023-04-26T18:14:59.386Z,13.70
2023-04-26T18:17:02.365Z,13.64
2023-04-26T18:19:05.361Z,13.64
2023-04-26T18:21:08.206Z,13.66
2023-04-26T18:23:11.025Z,13.71
2023-04-26T18:25:13.843Z,13.66
2023-04-26T18:27:17.984Z,13.63
2023-04-26T18:29:20.929Z,13.60
2023-04-26T18:31:23.850Z,13.46
2023-04-26T18:33:27.098Z,13.43
2023-04-26T18:35:29.890Z,13.51
2023-04-26T18:37:32.951Z,13.55
2023-04-26T18:39:35.790Z,13.48
2023-04-26T18:41:38.636Z,13.44
2023-04-26T18:43:42.848Z,13.39
2023-04-26T18:45:45.608Z,13.24
2023-04-26T18:47:48.513Z,13.21
2023-04-26T18:49:51.553Z,13.24
2023-04-26T18:51:54.568Z,13.30
2023-04-26T18:53:57.386Z,13.20
2023-04-26T18:56:00.197Z,13.16
2023-04-26T18:58:03.463Z,13.15
2023-04-26T19:00:09.256Z,13.17
2023-04-26T19:02:12.200Z,13.19
2023-04-26T19:04:15.311Z,13.17
2023-04-26T19:06:18.331Z,13.31
2023-04-26T19:08:21.247Z,13.18
2023-04-26T19:10:24.272Z,13.11
2023-04-26T19:12:26.987Z,13.10
2023-04-26T19:14:29.784Z,13.07
2023-04-26T19:16:35.078Z,13.05
2023-04-26T19:18:40.410Z,13.06
2023-04-26T19:20:43.181Z,13.06
2023-04-26T19:22:46.362Z,13.07
2023-04-26T19:24:49.926Z,13.08
2023-04-26T19:26:52.718Z,13.07
2023-04-26T19:28:56.483Z,12.98
2023-04-26T19:30:59.438Z,12.93
2023-04-26T19:33:03.648Z,12.92
2023-04-26T19:35:07.323Z,12.92
2023-04-26T19:37:10.174Z,12.88
2023-04-26T19:39:13.020Z,12.86
2023-04-26T19:41:16.956Z,12.84
2023-04-26T19:43:19.894Z,12.82
2023-04-26T19:45:22.704Z,12.77
2023-04-26T19:47:26.713Z,12.75
2023-04-26T19:49:30.953Z,12.75
2023-04-26T19:51:33.818Z,12.77
2023-04-26T19:53:36.672Z,12.73
2023-04-26T19:55:40.883Z,12.76
2023-04-26T19:57:43.689Z,12.78
2023-04-26T19:59:46.535Z,12.77
2023-04-26T20:01:51.041Z,12.75
2023-04-26T20:03:56.030Z,12.73
2023-04-26T20:06:00.542Z,12.60
2023-04-26T20:08:03.463Z,12.54
2023-04-26T20:10:07.603Z,12.58
2023-04-26T20:12:10.974Z,12.47
2023-04-26T20:14:13.875Z,12.42
2023-04-26T20:16:17.059Z,12.35
2023-04-26T20:18:19.854Z,12.28
2023-04-26T20:20:22.708Z,12.28
2023-04-26T20:22:26.873Z,12.18
2023-04-26T20:24:29.811Z,12.21
2023-04-26T20:26:32.644Z,12.14
2023-04-26T20:28:35.941Z,12.11
2023-04-26T20:30:38.856Z,12.08
2023-04-26T20:32:41.846Z,12.03
2023-04-26T20:34:44.637Z,12.00
2023-04-26T20:36:47.672Z,11.96
2023-04-26T20:38:52.243Z,11.96
2023-04-26T20:40:55.196Z,11.92
2023-04-26T20:42:58.014Z,11.93
2023-04-26T20:45:02.260Z,11.88
2023-04-26T20:47:06.105Z,11.86
2023-04-26T20:49:09.252Z,11.83
2023-04-26T20:51:12.255Z,11.79
2023-04-26T20:53:14.987Z,11.76
2023-04-26T20:55:19.202Z,11.75
2023-04-26T20:57:22.127Z,11.72
2023-04-26T20:59:25.336Z,11.70
2023-04-26T21:01:28.271Z,11.72
2023-04-26T21:03:32.396Z,11.68
2023-04-26T21:05:35.746Z,11.63
2023-04-26T21:07:38.618Z,11.59
2023-04-26T21:09:41.803Z,11.54
2023-04-26T21:11:46.006Z,11.49
2023-04-26T21:13:49.359Z,11.40
2023-04-26T21:15:52.210Z,11.39
2023-04-26T21:17:55.207Z,11.34
2023-04-26T21:19:58.024Z,11.31
2023-04-26T21:22:00.787Z,11.29
2023-04-26T21:24:04.043Z,11.25
2023-04-26T21:26:06.860Z,11.20
2023-04-26T21:28:11.056Z,11.15
2023-04-26T21:30:14.572Z,11.08
2023-04-26T21:32:17.404Z,11.05
2023-04-26T21:34:20.265Z,11.02
2023-04-26T21:36:23.068Z,10.96
2023-04-26T21:38:26.087Z,10.93
2023-04-26T21:40:28.918Z,10.89
2023-04-26T21:42:32.061Z,10.90
2023-04-26T21:44:36.187Z,10.97
2023-04-26T21:46:38.994Z,11.06
2023-04-26T21:48:41.955Z,11.10
2023-04-26T21:50:44.893Z,11.02
2023-04-26T21:52:47.714Z,10.99
2023-04-26T21:54:52.795Z,10.95
2023-04-26T21:56:55.748Z,10.91
2023-04-26T21:58:58.768Z,10.89
2023-04-26T22:01:09.869Z,10.86
2023-04-26T22:03:13.057Z,10.81
2023-04-26T22:05:16.068Z,10.80
2023-04-26T22:07:18.839Z,10.76
2023-04-26T22:09:22.201Z,10.68
2023-04-26T22:11:25.007Z,10.66
2023-04-26T22:13:27.885Z,10.62
2023-04-26T22:15:30.934Z,10.59
2023-04-26T22:17:35.165Z,10.56
2023-04-26T22:19:37.944Z,10.52
2023-04-26T22:21:40.994Z,10.51
2023-04-26T22:23:43.895Z,10.48
2023-04-26T22:25:46.730Z,10.48
2023-04-26T22:27:49.752Z,10.46
2023-04-26T22:29:52.556Z,10.39
2023-04-26T22:31:55.763Z,10.34
2023-04-26T22:33:59.950Z,10.32
2023-04-26T22:36:02.942Z,10.19
2023-04-26T22:38:05.817Z,10.12
2023-04-26T22:40:11.306Z,10.05
2023-04-26T22:42:14.097Z,10.04
2023-04-26T22:44:16.908Z,10.03
2023-04-26T22:46:19.724Z,10.02
2023-04-26T22:48:22.561Z,9.99
2023-04-26T22:50:26.871Z,9.87
2023-04-26T22:52:31.850Z,9.82
2023-04-26T22:54:34.969Z,9.77
2023-04-26T22:56:37.791Z,9.72
2023-04-26T22:58:40.523Z,9.71
2023-04-26T23:00:43.551Z,9.69
2023-04-26T23:02:46.616Z,9.69
2023-04-26T23:04:49.967Z,9.65
2023-04-26T23:06:54.542Z,9.60
2023-04-26T23:08:57.329Z,9.47
2023-04-26T23:11:00.061Z,9.43
2023-04-26T23:13:03.772Z,9.43
2023-04-26T23:15:07.841Z,9.47
2023-04-26T23:17:11.877Z,9.48
2023-04-26T23:21:17.647Z,9.38
2023-04-26T23:23:21.781Z,9.36
2023-04-26T23:25:24.500Z,9.33
2023-04-26T23:27:27.665Z,9.32
2023-04-26T23:29:30.494Z,9.27
2023-04-26T23:31:33.354Z,9.24
2023-04-26T23:33:36.120Z,9.22
2023-04-26T23:35:41.540Z,9.24
2023-04-26T23:37:44.348Z,9.23
2023-04-26T23:39:48.546Z,9.24
2023-04-26T23:41:51.455Z,9.24
2023-04-26T23:43:54.237Z,9.26
2023-04-26T23:45:57.092Z,9.25
2023-04-26T23:48:00.076Z,9.20
2023-04-26T23:50:02.939Z,9.14
2023-04-26T23:52:06.114Z,9.12
2023-04-26T23:54:08.978Z,9.11
2023-04-26T23:56:13.218Z,9.08
2023-04-26T23:58:16.023Z,9.03
